createdAt,value
2017-10-04T00:00:55.681Z,78.3
2017-10-04T00:01:57.122Z,78.3
2017-10-04T00:02:58.573Z,78.4
2017-10-04T00:04:00.002Z,78.6
2017-10-04T00:05:01.447Z,78.2
2017-10-04T00:06:02.879Z,78.1
2017-10-04T00:07:04.317Z,78.6
2017-10-04T00:08:05.766Z,78.5
2017-10-04T00:09:07.198Z,78.4
2017-10-04T00:10:08.645Z,78.6
2017-10-04T00:11:10.051Z,78.0
2017-10-04T00:12:11.503Z,78.3
2017-10-04T00:13:12.951Z,78.3
2017-10-04T00:14:14.407Z,77.9
2017-10-04T00:15:15.842Z,78.0
2017-10-04T00:16:17.270Z,77.9
2017-10-04T00:17:18.707Z,77.9
2017-10-04T00:18:20.142Z,77.8
2017-10-04T00:19:21.583Z,77.9
2017-10-04T00:20:23.034Z,78.0
2017-10-04T00:21:24.484Z,77.8
2017-10-04T00:22:25.941Z,78.0
2017-10-04T00:23:27.374Z,78.2
2017-10-04T00:24:28.843Z,77.9
2017-10-04T00:25:30.289Z,78.1
2017-10-04T00:26:31.732Z,78.4
2017-10-04T00:27:33.155Z,78.4
2017-10-04T00:28:34.585Z,78.4
2017-10-04T00:29:36.641Z,78.2
2017-10-04T00:30:38.064Z,78.2
2017-10-04T00:31:39.499Z,78.4
2017-10-04T00:32:40.977Z,78.4
2017-10-04T00:33:42.448Z,78.5
2017-10-04T00:34:43.956Z,78.4
2017-10-04T00:35:45.374Z,78.1
2017-10-04T00:36:46.811Z,78.9
2017-10-04T00:37:48.255Z,78.6
2017-10-04T00:38:49.727Z,78.8
2017-10-04T00:39:51.173Z,79.0
2017-10-04T00:40:52.583Z,78.7
2017-10-04T00:41:54.046Z,78.9
2017-10-04T00:42:55.480Z,78.8
2017-10-04T00:43:56.927Z,79.1
2017-10-04T00:44:58.373Z,79.1
2017-10-04T00:45:59.810Z,78.9
2017-10-04T00:47:01.258Z,78.9
2017-10-04T00:48:02.698Z,78.8
2017-10-04T00:49:04.155Z,79.2
2017-10-04T00:50:05.616Z,78.9
2017-10-04T00:51:07.053Z,78.7
2017-10-04T00:52:08.573Z,78.7
2017-10-04T00:53:09.995Z,78.8
2017-10-04T00:54:11.442Z,78.2
2017-10-04T00:55:12.880Z,78.4
2017-10-04T00:56:14.327Z,78.3
2017-10-04T00:57:15.758Z,78.4
2017-10-04T00:58:17.202Z,78.4
2017-10-04T00:59:18.666Z,78.2
2017-10-04T01:00:20.107Z,78.4
2017-10-04T01:01:21.551Z,78.4
2017-10-04T01:02:22.990Z,78.3
2017-10-04T01:03:24.435Z,78.5
2017-10-04T01:04:25.880Z,78.2
2017-10-04T01:05:27.333Z,78.3
2017-10-04T01:06:28.802Z,78.4
2017-10-04T01:07:30.252Z,78.4
2017-10-04T01:08:31.693Z,78.2
2017-10-04T01:09:33.142Z,78.4
2017-10-04T01:10:34.576Z,78.2
2017-10-04T01:11:36.034Z,78.1
2017-10-04T01:12:37.491Z,78.4
2017-10-04T01:13:39.006Z,78.2
2017-10-04T01:14:40.447Z,78.4
2017-10-04T01:15:41.893Z,78.3
2017-10-04T01:16:43.328Z,78.1
2017-10-04T01:17:44.770Z,78.2
2017-10-04T01:18:46.213Z,78.5
2017-10-04T01:19:47.653Z,78.4
2017-10-04T01:20:49.612Z,78.4
2017-10-04T01:21:51.069Z,78.4
2017-10-04T01:22:52.514Z,78.4
2017-10-04T01:23:53.953Z,78.4
2017-10-04T01:24:55.390Z,77.9
2017-10-04T01:25:56.847Z,77.9
2017-10-04T01:26:58.298Z,77.8
2017-10-04T01:27:59.716Z,77.7
2017-10-04T01:29:01.144Z,78.0
2017-10-04T01:30:02.588Z,77.8
2017-10-04T01:31:04.047Z,78.2
2017-10-04T01:32:05.501Z,78.4
2017-10-04T01:33:06.961Z,78.0
2017-10-04T01:34:08.388Z,78.0
2017-10-04T01:35:09.823Z,78.1
2017-10-04T01:36:11.290Z,78.0
2017-10-04T01:37:12.754Z,78.2
2017-10-04T01:38:14.178Z,78.4
2017-10-04T01:39:15.624Z,78.0
2017-10-04T01:40:17.060Z,79.1
2017-10-04T01:41:18.489Z,79.0
2017-10-04T01:42:19.939Z,78.9
2017-10-04T01:43:21.384Z,78.7
2017-10-04T01:44:22.860Z,78.9
2017-10-04T01:45:24.309Z,78.8
2017-10-04T01:46:25.748Z,78.6
2017-10-04T01:47:27.194Z,78.6
2017-10-04T01:48:28.646Z,78.7
2017-10-04T01:49:30.079Z,79.1
2017-10-04T01:50:31.515Z,79.0
2017-10-04T01:51:32.951Z,79.0
2017-10-04T01:52:34.381Z,79.3
2017-10-04T01:53:35.817Z,79.3
2017-10-04T01:54:37.243Z,79.3
2017-10-04T01:55:38.655Z,79.3
2017-10-04T01:56:40.111Z,79.3
2017-10-04T01:57:41.898Z,79.1
2017-10-04T01:58:43.349Z,79.3
2017-10-04T01:59:44.809Z,79.5
2017-10-04T02:00:46.238Z,79.3
2017-10-04T02:01:47.694Z,79.5
2017-10-04T02:02:49.146Z,79.4
2017-10-04T02:03:50.589Z,79.5
2017-10-04T02:04:52.027Z,79.3
2017-10-04T02:05:53.471Z,79.1
2017-10-04T02:06:54.907Z,79.7
2017-10-04T02:07:56.349Z,79.7
2017-10-04T02:08:57.906Z,79.8
2017-10-04T02:09:59.332Z,79.7
2017-10-04T02:11:00.769Z,79.8
2017-10-04T02:12:02.204Z,79.5
2017-10-04T02:13:03.644Z,79.7
2017-10-04T02:14:05.056Z,79.9
2017-10-04T02:15:06.519Z,79.7
2017-10-04T02:16:07.970Z,79.7
2017-10-04T02:17:09.412Z,79.7
2017-10-04T02:18:10.853Z,79.7
2017-10-04T02:19:12.283Z,79.5
2017-10-04T02:20:13.693Z,79.5
2017-10-04T02:21:15.146Z,79.6
2017-10-04T02:22:16.578Z,79.6
2017-10-04T02:23:18.054Z,79.6
2017-10-04T02:24:19.494Z,79.6
2017-10-04T02:25:20.938Z,79.6
2017-10-04T02:26:22.391Z,79.5
2017-10-04T02:27:23.846Z,79.5
2017-10-04T02:28:26.122Z,79.6
2017-10-04T02:29:27.660Z,79.7
2017-10-04T02:30:29.094Z,79.4
2017-10-04T02:31:30.540Z,79.5
2017-10-04T02:32:31.984Z,79.3
2017-10-04T02:33:33.419Z,79.4
2017-10-04T02:34:34.884Z,79.6
2017-10-04T02:35:36.330Z,79.7
2017-10-04T02:36:37.754Z,79.7
2017-10-04T02:37:39.201Z,80.2
2017-10-04T02:38:40.657Z,79.9
2017-10-04T02:39:42.128Z,80.0
2017-10-04T02:40:43.589Z,80.0
2017-10-04T02:41:45.048Z,80.5
2017-10-04T02:42:46.491Z,80.6
2017-10-04T02:43:47.940Z,80.7
2017-10-04T02:44:49.460Z,80.0
2017-10-04T02:45:50.927Z,80.6
2017-10-04T02:46:52.382Z,80.4
2017-10-04T02:47:53.842Z,80.1
2017-10-04T02:48:55.285Z,80.4
2017-10-04T02:49:56.726Z,80.1
2017-10-04T02:50:58.177Z,80.4
2017-10-04T02:51:59.631Z,80.5
2017-10-04T02:53:01.171Z,80.7
2017-10-04T02:54:02.623Z,80.6
2017-10-04T02:55:04.087Z,80.4
2017-10-04T02:56:05.557Z,80.1
2017-10-04T02:57:07.038Z,80.4
2017-10-04T02:58:08.509Z,80.4
2017-10-04T02:59:09.954Z,80.4
2017-10-04T03:00:11.404Z,80.6
2017-10-04T03:01:12.903Z,80.5
2017-10-04T03:02:14.345Z,80.4
2017-10-04T03:03:15.809Z,80.4
2017-10-04T03:04:18.131Z,80.1
2017-10-04T03:05:19.598Z,80.0
2017-10-04T03:06:21.088Z,79.9
2017-10-04T03:07:22.531Z,79.9
2017-10-04T03:08:23.995Z,80.7
2017-10-04T03:09:25.450Z,79.9
2017-10-04T03:10:26.923Z,80.0
2017-10-04T03:11:28.395Z,80.2
2017-10-04T03:12:29.868Z,80.2
2017-10-04T03:13:31.311Z,79.9
2017-10-04T03:14:32.787Z,80.2
2017-10-04T03:15:34.253Z,80.3
2017-10-04T03:16:35.746Z,80.1
2017-10-04T03:17:37.197Z,80.3
2017-10-04T03:18:38.715Z,80.2
2017-10-04T03:19:40.161Z,80.0
2017-10-04T03:20:41.655Z,80.1
2017-10-04T03:21:43.120Z,79.9
2017-10-04T03:22:44.616Z,80.8
2017-10-04T03:23:46.090Z,80.6
2017-10-04T03:24:47.550Z,80.9
2017-10-04T03:25:49.024Z,80.8
2017-10-04T03:26:50.477Z,80.8
2017-10-04T03:27:51.983Z,80.8
2017-10-04T03:28:53.437Z,80.6
2017-10-04T03:29:54.896Z,80.3
2017-10-04T03:30:56.487Z,80.5
2017-10-04T03:31:57.925Z,80.6
2017-10-04T03:32:59.382Z,80.8
2017-10-04T03:34:00.865Z,81.0
2017-10-04T03:35:02.313Z,80.8
2017-10-04T03:36:03.785Z,80.9
2017-10-04T03:37:05.259Z,80.8
2017-10-04T03:38:06.709Z,80.8
2017-10-04T03:39:08.189Z,80.5
2017-10-04T03:40:09.622Z,81.0
2017-10-04T03:41:11.070Z,80.8
2017-10-04T03:42:12.580Z,81.0
2017-10-04T03:43:14.055Z,80.6
2017-10-04T03:44:15.511Z,80.8
2017-10-04T03:45:16.940Z,80.4
2017-10-04T03:46:18.403Z,81.0
2017-10-04T03:47:19.863Z,80.5
2017-10-04T03:48:21.324Z,80.3
2017-10-04T03:49:22.796Z,80.5
2017-10-04T03:50:24.264Z,80.8
2017-10-04T03:51:25.710Z,80.7
2017-10-04T03:52:27.176Z,80.5
2017-10-04T03:53:28.618Z,80.7
2017-10-04T03:54:30.089Z,80.5
2017-10-04T03:55:31.535Z,80.5
2017-10-04T03:56:32.994Z,80.8
2017-10-04T03:57:34.477Z,80.8
2017-10-04T03:58:35.933Z,80.8
2017-10-04T03:59:37.404Z,80.9
2017-10-04T04:00:38.848Z,80.9
2017-10-04T04:01:40.299Z,80.9
2017-10-04T04:02:41.754Z,80.8
2017-10-04T04:03:43.220Z,81.0
2017-10-04T04:04:44.730Z,80.9
2017-10-04T04:05:46.198Z,80.8
2017-10-04T04:06:47.665Z,80.9
2017-10-04T04:07:49.092Z,81.0
2017-10-04T04:08:50.546Z,80.9
2017-10-04T04:09:52.034Z,80.8
2017-10-04T04:10:53.475Z,81.0
2017-10-04T04:11:54.940Z,80.8
2017-10-04T04:12:56.430Z,81.1
2017-10-04T04:13:57.911Z,81.0
2017-10-04T04:14:59.389Z,81.1
2017-10-04T04:16:01.694Z,80.9
2017-10-04T04:17:03.160Z,80.9
2017-10-04T04:18:04.647Z,81.0
2017-10-04T04:19:06.094Z,81.3
2017-10-04T04:20:07.532Z,81.2
2017-10-04T04:21:08.984Z,81.7
2017-10-04T04:22:10.508Z,81.3
2017-10-04T04:23:11.972Z,81.6
2017-10-04T04:24:13.451Z,81.4
2017-10-04T04:25:14.924Z,81.3
2017-10-04T04:26:16.434Z,81.9
2017-10-04T04:27:17.886Z,81.9
2017-10-04T04:28:19.351Z,82.0
2017-10-04T04:29:20.822Z,82.0
2017-10-04T04:30:22.247Z,82.1
2017-10-04T04:31:23.729Z,81.7
2017-10-04T04:32:25.215Z,81.4
2017-10-04T04:33:26.685Z,81.8
2017-10-04T04:34:28.133Z,81.6
2017-10-04T04:35:30.206Z,82.0
2017-10-04T04:36:31.624Z,81.8
2017-10-04T04:37:33.145Z,81.3
2017-10-04T04:38:34.662Z,82.1
2017-10-04T04:39:36.194Z,82.0
2017-10-04T04:40:37.678Z,81.6
2017-10-04T04:41:39.164Z,81.4
2017-10-04T04:42:40.613Z,81.5
2017-10-04T04:43:42.094Z,81.5
2017-10-04T04:44:43.540Z,81.3
2017-10-04T04:45:45.008Z,82.1
2017-10-04T04:46:46.457Z,81.4
2017-10-04T04:47:47.922Z,81.4
2017-10-04T04:48:49.369Z,81.8
2017-10-04T04:49:50.841Z,81.2
2017-10-04T04:50:52.325Z,81.8
2017-10-04T04:51:53.782Z,81.9
2017-10-04T04:52:55.258Z,82.3
2017-10-04T04:53:57.728Z,81.8
2017-10-04T04:54:59.230Z,81.7
2017-10-04T04:56:00.679Z,81.9
2017-10-04T04:57:02.149Z,81.7
2017-10-04T04:58:03.709Z,81.8
2017-10-04T04:59:05.199Z,81.9
2017-10-04T05:00:06.659Z,81.8
2017-10-04T05:01:08.125Z,82.3
2017-10-04T05:02:09.550Z,82.3
2017-10-04T05:03:11.013Z,81.9
2017-10-04T05:04:12.475Z,81.9
2017-10-04T05:05:13.953Z,81.7
2017-10-04T05:06:15.420Z,81.5
2017-10-04T05:07:16.912Z,81.7
2017-10-04T05:08:18.397Z,81.9
2017-10-04T05:09:19.887Z,81.8
2017-10-04T05:10:21.355Z,81.9
2017-10-04T05:11:22.839Z,81.9
2017-10-04T05:12:24.309Z,81.7
2017-10-04T05:13:25.758Z,81.8
2017-10-04T05:14:27.230Z,81.7
2017-10-04T05:15:28.679Z,82.1
2017-10-04T05:16:30.108Z,81.9
2017-10-04T05:17:31.572Z,82.0
2017-10-04T05:18:33.028Z,82.1
2017-10-04T05:19:34.517Z,81.8
2017-10-04T05:20:35.953Z,81.9
2017-10-04T05:21:37.419Z,82.3
2017-10-04T05:22:38.861Z,81.8
2017-10-04T05:23:40.315Z,81.9
2017-10-04T05:24:41.750Z,81.9
2017-10-04T05:25:43.189Z,81.5
2017-10-04T05:26:44.616Z,81.9
2017-10-04T05:27:46.075Z,82.1
2017-10-04T05:28:47.516Z,82.1
2017-10-04T05:29:49.003Z,82.1
2017-10-04T05:30:50.449Z,82.3
2017-10-04T05:31:51.884Z,82.1
2017-10-04T05:32:53.326Z,81.6
2017-10-04T05:33:54.746Z,81.6
2017-10-04T05:34:56.184Z,81.9
2017-10-04T05:35:57.609Z,81.7
2017-10-04T05:36:59.019Z,82.2
2017-10-04T05:38:00.438Z,81.9
2017-10-04T05:39:02.630Z,81.7
2017-10-04T05:40:04.034Z,81.8
2017-10-04T05:41:05.425Z,82.2
2017-10-04T05:42:06.832Z,81.9
2017-10-04T05:43:08.228Z,82.1
2017-10-04T05:44:09.630Z,82.1
2017-10-04T05:45:11.048Z,82.1
2017-10-04T05:46:12.429Z,82.0
2017-10-04T05:47:13.856Z,81.9
2017-10-04T05:48:15.237Z,81.9
2017-10-04T05:49:16.642Z,81.9
2017-10-04T05:50:18.048Z,81.9
2017-10-04T05:51:19.449Z,82.2
2017-10-04T05:52:20.849Z,82.1
2017-10-04T05:53:22.248Z,81.8
2017-10-04T05:54:23.650Z,82.0
2017-10-04T05:55:25.050Z,82.1
2017-10-04T05:56:26.452Z,82.1
2017-10-04T05:57:28.627Z,81.8
2017-10-04T05:58:30.031Z,81.7
2017-10-04T05:59:31.433Z,81.9
2017-10-04T06:00:32.835Z,82.1
2017-10-04T06:01:34.232Z,82.0
2017-10-04T06:02:35.636Z,82.3
2017-10-04T06:03:37.030Z,83.1
2017-10-04T06:04:38.434Z,82.8
2017-10-04T06:05:39.839Z,82.6
2017-10-04T06:06:41.234Z,82.6
2017-10-04T06:07:42.632Z,82.6
2017-10-04T06:08:44.034Z,82.5
2017-10-04T06:09:45.434Z,82.5
2017-10-04T06:10:46.833Z,82.8
2017-10-04T06:11:48.252Z,82.5
2017-10-04T06:12:49.652Z,82.6
2017-10-04T06:13:51.057Z,82.5
2017-10-04T06:14:52.460Z,82.8
2017-10-04T06:15:53.887Z,82.5
2017-10-04T06:16:55.290Z,82.8
2017-10-04T06:17:56.690Z,82.8
2017-10-04T06:18:58.088Z,82.9
2017-10-04T06:19:59.489Z,82.9
2017-10-04T06:21:00.914Z,82.8
2017-10-04T06:22:02.365Z,82.5
2017-10-04T06:23:03.768Z,82.6
2017-10-04T06:24:05.167Z,82.7
2017-10-04T06:25:06.566Z,82.6
2017-10-04T06:26:07.965Z,83.1
2017-10-04T06:27:09.366Z,83.0
2017-10-04T06:28:10.772Z,82.9
2017-10-04T06:29:12.186Z,82.6
2017-10-04T06:30:13.587Z,83.0
2017-10-04T06:31:15.037Z,83.1
2017-10-04T06:32:16.432Z,83.1
2017-10-04T06:33:17.838Z,83.0
2017-10-04T06:34:19.239Z,83.1
2017-10-04T06:35:20.637Z,82.9
2017-10-04T06:36:22.036Z,83.2
2017-10-04T06:37:23.440Z,83.2
2017-10-04T06:38:24.835Z,83.2
2017-10-04T06:39:26.237Z,83.2
2017-10-04T06:40:27.636Z,83.1
2017-10-04T06:41:29.043Z,83.1
2017-10-04T06:42:30.452Z,83.1
2017-10-04T06:43:31.859Z,83.1
2017-10-04T06:44:33.277Z,83.0
2017-10-04T06:45:34.680Z,83.1
2017-10-04T06:46:36.072Z,83.1
2017-10-04T06:47:37.498Z,83.0
2017-10-04T06:48:38.898Z,82.7
2017-10-04T06:49:40.297Z,82.6
2017-10-04T06:50:41.701Z,82.9
2017-10-04T06:51:43.102Z,83.1
2017-10-04T06:52:44.499Z,83.0
2017-10-04T06:53:45.904Z,83.2
2017-10-04T06:54:47.304Z,83.1
2017-10-04T06:55:48.714Z,83.2
2017-10-04T06:56:50.114Z,83.2
2017-10-04T06:57:51.516Z,83.1
2017-10-04T06:58:52.933Z,83.1
2017-10-04T06:59:54.337Z,83.2
2017-10-04T07:00:55.756Z,83.1
2017-10-04T07:01:57.158Z,82.8
2017-10-04T07:02:58.565Z,82.8
2017-10-04T07:03:59.965Z,82.5
2017-10-04T07:05:01.389Z,82.7
2017-10-04T07:06:02.789Z,82.9
2017-10-04T07:07:04.195Z,82.6
2017-10-04T07:08:05.600Z,82.6
2017-10-04T07:09:07.019Z,83.2
2017-10-04T07:10:08.428Z,83.1
2017-10-04T07:11:09.835Z,83.2
2017-10-04T07:12:11.258Z,83.1
2017-10-04T07:13:12.676Z,83.0
2017-10-04T07:14:14.110Z,83.1
2017-10-04T07:15:15.517Z,83.1
2017-10-04T07:16:16.915Z,82.8
2017-10-04T07:17:18.323Z,82.7
2017-10-04T07:18:19.726Z,82.9
2017-10-04T07:19:21.130Z,82.8
2017-10-04T07:20:22.535Z,83.0
2017-10-04T07:21:23.943Z,83.0
2017-10-04T07:22:25.344Z,82.9
2017-10-04T07:23:26.761Z,82.9
2017-10-04T07:24:28.156Z,83.2
2017-10-04T07:25:29.556Z,82.8
2017-10-04T07:26:30.960Z,82.8
2017-10-04T07:27:32.359Z,82.1
2017-10-04T07:28:33.758Z,81.9
2017-10-04T07:29:35.162Z,81.8
2017-10-04T07:30:36.560Z,82.1
2017-10-04T07:31:37.960Z,82.3
2017-10-04T07:32:39.360Z,82.0
2017-10-04T07:33:40.766Z,82.2
2017-10-04T07:34:42.165Z,81.8
2017-10-04T07:35:43.571Z,82.1
2017-10-04T07:36:44.973Z,82.2
2017-10-04T07:37:46.383Z,81.9
2017-10-04T07:38:47.789Z,82.0
2017-10-04T07:39:49.193Z,81.5
2017-10-04T07:40:50.603Z,82.2
2017-10-04T07:41:52.008Z,81.9
2017-10-04T07:42:53.417Z,81.9
2017-10-04T07:43:54.817Z,81.4
2017-10-04T07:44:56.216Z,81.3
2017-10-04T07:45:57.617Z,81.4
2017-10-04T07:46:59.020Z,81.3
2017-10-04T07:48:00.429Z,81.8
2017-10-04T07:49:01.835Z,81.4
2017-10-04T07:50:03.237Z,81.2
2017-10-04T07:51:04.636Z,81.1
2017-10-04T07:52:06.035Z,81.0
2017-10-04T07:53:07.433Z,80.6
2017-10-04T07:54:08.835Z,80.6
2017-10-04T07:55:10.237Z,80.6
2017-10-04T07:56:11.651Z,80.7
2017-10-04T07:57:13.049Z,80.6
2017-10-04T07:58:14.454Z,80.0
2017-10-04T07:59:15.859Z,80.6
2017-10-04T08:00:17.260Z,80.5
2017-10-04T08:01:18.661Z,80.7
2017-10-04T08:02:20.064Z,80.6
2017-10-04T08:03:21.463Z,80.5
2017-10-04T08:04:22.865Z,80.4
2017-10-04T08:05:24.269Z,79.5
2017-10-04T08:06:25.674Z,79.6
2017-10-04T08:07:27.075Z,79.6
2017-10-04T08:08:28.478Z,79.7
2017-10-04T08:09:29.881Z,80.0
2017-10-04T08:10:31.283Z,79.1
2017-10-04T08:11:32.690Z,79.4
2017-10-04T08:12:34.104Z,79.3
2017-10-04T08:13:35.505Z,79.0
2017-10-04T08:14:36.908Z,79.5
2017-10-04T08:15:38.312Z,79.3
2017-10-04T08:16:39.712Z,79.3
2017-10-04T08:17:41.138Z,79.4
2017-10-04T08:18:42.532Z,78.7
2017-10-04T08:19:43.932Z,78.6
2017-10-04T08:20:45.333Z,79.0
2017-10-04T08:21:46.756Z,78.8
2017-10-04T08:22:48.172Z,78.8
2017-10-04T08:23:49.574Z,79.0
2017-10-04T08:24:50.986Z,78.8
2017-10-04T08:25:52.383Z,78.7
2017-10-04T08:26:53.782Z,78.8
2017-10-04T08:27:55.176Z,79.1
2017-10-04T08:28:56.585Z,78.6
2017-10-04T08:29:57.987Z,78.7
2017-10-04T08:30:59.393Z,78.9
2017-10-04T08:32:00.795Z,78.9
2017-10-04T08:33:02.195Z,78.5
2017-10-04T08:34:03.596Z,78.9
2017-10-04T08:35:04.996Z,78.9
2017-10-04T08:36:06.397Z,79.0
2017-10-04T08:37:07.800Z,78.9
2017-10-04T08:38:09.208Z,78.9
2017-10-04T08:39:10.607Z,78.1
2017-10-04T08:40:12.076Z,78.5
2017-10-04T08:41:13.480Z,78.7
2017-10-04T08:42:14.881Z,78.6
2017-10-04T08:43:16.282Z,77.9
2017-10-04T08:44:17.683Z,77.4
2017-10-04T08:45:19.089Z,77.4
2017-10-04T08:46:20.491Z,77.9
2017-10-04T08:47:21.894Z,77.9
2017-10-04T08:48:23.322Z,77.7
2017-10-04T08:49:24.709Z,77.3
2017-10-04T08:50:26.113Z,77.3
2017-10-04T08:51:27.518Z,77.3
2017-10-04T08:52:28.922Z,77.6
2017-10-04T08:53:30.324Z,76.9
2017-10-04T08:54:31.722Z,77.1
2017-10-04T08:55:33.124Z,77.0
2017-10-04T08:56:34.524Z,76.9
2017-10-04T08:57:35.929Z,76.7
2017-10-04T08:58:37.331Z,77.2
2017-10-04T08:59:38.733Z,77.3
2017-10-04T09:00:40.136Z,77.0
2017-10-04T09:01:41.536Z,77.1
2017-10-04T09:02:42.938Z,76.7
2017-10-04T09:03:44.338Z,77.1
2017-10-04T09:04:45.742Z,76.3
2017-10-04T09:05:47.144Z,76.9
2017-10-04T09:06:48.546Z,76.3
2017-10-04T09:07:49.950Z,76.3
2017-10-04T09:08:51.350Z,76.0
2017-10-04T09:09:52.751Z,75.6
2017-10-04T09:10:54.166Z,76.0
2017-10-04T09:11:55.573Z,75.8
2017-10-04T09:12:56.974Z,75.5
2017-10-04T09:13:58.384Z,74.7
2017-10-04T09:14:59.792Z,75.3
2017-10-04T09:16:01.195Z,75.1
2017-10-04T09:17:02.594Z,75.5
2017-10-04T09:18:03.996Z,74.5
2017-10-04T09:19:05.403Z,74.5
2017-10-04T09:20:06.803Z,74.8
2017-10-04T09:21:08.209Z,74.8
2017-10-04T09:22:09.622Z,74.9
2017-10-04T09:23:11.022Z,74.5
2017-10-04T09:24:12.424Z,74.7
2017-10-04T09:25:13.822Z,74.8
2017-10-04T09:26:15.227Z,73.9
2017-10-04T09:27:16.629Z,73.7
2017-10-04T09:28:18.036Z,73.2
2017-10-04T09:29:19.442Z,73.5
2017-10-04T09:30:20.843Z,73.9
2017-10-04T09:31:22.243Z,73.6
2017-10-04T09:32:23.643Z,74.3
2017-10-04T09:33:25.047Z,74.2
2017-10-04T09:34:26.449Z,73.9
2017-10-04T09:35:27.851Z,73.7
2017-10-04T09:36:29.263Z,73.7
2017-10-04T09:37:30.665Z,72.6
2017-10-04T09:38:32.073Z,72.7
2017-10-04T09:39:33.468Z,72.6
2017-10-04T09:40:34.868Z,72.3
2017-10-04T09:41:36.274Z,72.2
2017-10-04T09:42:37.678Z,72.3
2017-10-04T09:43:39.078Z,72.3
2017-10-04T09:44:40.495Z,72.6
2017-10-04T09:45:41.895Z,71.9
2017-10-04T09:46:43.298Z,72.0
2017-10-04T09:47:44.702Z,71.3
2017-10-04T09:48:46.106Z,72.0
2017-10-04T09:49:47.511Z,71.7
2017-10-04T09:50:48.911Z,71.9
2017-10-04T09:51:50.312Z,71.9
2017-10-04T09:52:51.721Z,72.6
2017-10-04T09:53:53.119Z,72.7
2017-10-04T09:54:54.524Z,72.1
2017-10-04T09:55:55.924Z,72.6
2017-10-04T09:56:57.331Z,72.2
2017-10-04T09:57:58.735Z,72.9
2017-10-04T09:59:00.136Z,71.8
2017-10-04T10:00:01.537Z,72.1
2017-10-04T10:01:02.943Z,71.5
2017-10-04T10:02:04.344Z,71.6
2017-10-04T10:03:05.747Z,70.9
2017-10-04T10:04:07.152Z,71.4
2017-10-04T10:05:08.557Z,71.1
2017-10-04T10:06:09.961Z,71.0
2017-10-04T10:07:11.364Z,71.5
2017-10-04T10:08:12.765Z,71.4
2017-10-04T10:09:14.178Z,70.7
2017-10-04T10:10:15.587Z,70.8
2017-10-04T10:11:16.993Z,70.7
2017-10-04T10:12:18.408Z,71.0
2017-10-04T10:13:19.807Z,71.0
2017-10-04T10:14:21.208Z,71.7
2017-10-04T10:15:22.624Z,71.7
2017-10-04T10:16:24.367Z,71.4
2017-10-04T10:17:26.073Z,71.5
2017-10-04T10:18:27.678Z,70.8
2017-10-04T10:19:29.195Z,70.5
2017-10-04T10:20:30.734Z,70.5
2017-10-04T10:21:32.259Z,71.1
2017-10-04T10:22:36.982Z,70.8
2017-10-04T10:23:42.756Z,70.9
2017-10-04T10:24:47.258Z,71.4
2017-10-04T10:25:49.440Z,70.7
2017-10-04T10:26:50.962Z,71.7
2017-10-04T10:27:55.476Z,70.9
2017-10-04T10:28:56.933Z,71.1
2017-10-04T10:29:58.534Z,70.9
2017-10-04T10:31:00.280Z,70.8
2017-10-04T10:32:01.895Z,70.8
2017-10-04T10:33:03.449Z,71.4
2017-10-04T10:34:05.094Z,70.9
2017-10-04T10:35:06.641Z,70.9
2017-10-04T10:36:08.462Z,71.0
2017-10-04T10:37:10.085Z,69.9
2017-10-04T10:38:11.591Z,69.8
2017-10-04T10:39:13.236Z,69.7
2017-10-04T10:40:14.897Z,69.8
2017-10-04T10:41:16.559Z,69.2
2017-10-04T10:42:18.233Z,69.0
2017-10-04T10:43:19.903Z,69.0
2017-10-04T10:44:21.522Z,68.7
2017-10-04T10:45:23.255Z,69.1
2017-10-04T10:46:25.015Z,68.9
2017-10-04T10:47:26.733Z,68.7
2017-10-04T10:48:28.366Z,69.1
2017-10-04T10:49:29.967Z,68.6
2017-10-04T10:50:31.529Z,69.9
2017-10-04T10:51:33.121Z,69.1
2017-10-04T10:52:34.736Z,68.6
2017-10-04T10:53:36.238Z,68.6
2017-10-04T10:54:37.746Z,68.4
2017-10-04T10:55:39.319Z,68.6
2017-10-04T10:56:40.862Z,69.0
2017-10-04T10:57:42.341Z,69.5
2017-10-04T10:58:43.919Z,69.2
2017-10-04T10:59:45.553Z,69.6
2017-10-04T11:00:47.081Z,70.0
2017-10-04T11:01:48.931Z,70.2
2017-10-04T11:02:50.740Z,69.8
2017-10-04T11:03:52.208Z,70.1
2017-10-04T11:04:53.673Z,69.5
2017-10-04T11:05:55.105Z,68.7
2017-10-04T11:06:56.509Z,68.5
2017-10-04T11:07:57.982Z,69.1
2017-10-04T11:08:59.445Z,68.6
2017-10-04T11:10:00.873Z,68.6
2017-10-04T11:11:02.317Z,68.8
2017-10-04T11:12:03.795Z,68.6
2017-10-04T11:13:05.221Z,68.6
2017-10-04T11:14:06.655Z,68.6
2017-10-04T11:15:08.114Z,68.3
2017-10-04T11:16:09.565Z,68.4
2017-10-04T11:17:11.021Z,68.0
2017-10-04T11:18:13.185Z,68.0
2017-10-04T11:19:14.647Z,68.0
2017-10-04T11:20:16.122Z,68.3
2017-10-04T11:21:17.550Z,68.6
2017-10-04T11:22:19.023Z,68.3
2017-10-04T11:23:20.522Z,68.6
2017-10-04T11:24:22.012Z,68.7
2017-10-04T11:25:23.488Z,68.8
2017-10-04T11:26:24.978Z,69.0
2017-10-04T11:27:26.487Z,69.0
2017-10-04T11:28:27.956Z,69.4
2017-10-04T11:29:29.449Z,68.9
2017-10-04T11:30:30.957Z,69.0
2017-10-04T11:31:32.445Z,69.3
2017-10-04T11:32:33.938Z,68.6
2017-10-04T11:33:35.411Z,67.6
2017-10-04T11:34:36.849Z,67.9
2017-10-04T11:35:38.297Z,67.6
2017-10-04T11:36:39.745Z,68.1
2017-10-04T11:37:41.238Z,68.4
2017-10-04T11:38:42.722Z,67.6
2017-10-04T11:39:44.217Z,67.2
2017-10-04T11:40:45.692Z,67.8
2017-10-04T11:41:47.142Z,68.6
2017-10-04T11:42:48.617Z,68.6
2017-10-04T11:43:50.084Z,68.1
2017-10-04T11:44:51.537Z,68.0
2017-10-04T11:45:53.053Z,67.2
2017-10-04T11:46:54.544Z,67.1
2017-10-04T11:47:56.095Z,66.7
2017-10-04T11:48:57.664Z,67.1
2017-10-04T11:49:59.101Z,67.2
2017-10-04T11:51:00.591Z,66.7
2017-10-04T11:52:02.081Z,65.8
2017-10-04T11:53:03.570Z,65.9
2017-10-04T11:54:05.039Z,66.2
2017-10-04T11:55:06.557Z,66.8
2017-10-04T11:56:07.991Z,67.0
2017-10-04T11:57:09.458Z,66.6
2017-10-04T11:58:10.890Z,65.3
2017-10-04T11:59:12.349Z,65.7
2017-10-04T12:00:13.816Z,65.1
2017-10-04T12:01:15.220Z,64.7
2017-10-04T12:02:16.651Z,65.3
2017-10-04T12:03:18.063Z,64.9
2017-10-04T12:04:19.488Z,64.4
2017-10-04T12:05:20.917Z,64.9
2017-10-04T12:06:22.354Z,64.6
2017-10-04T12:07:23.808Z,65.1
2017-10-04T12:08:25.253Z,65.3
2017-10-04T12:09:26.714Z,65.8
2017-10-04T12:10:28.145Z,65.8
2017-10-04T12:11:29.598Z,65.8
2017-10-04T12:12:31.058Z,65.8
2017-10-04T12:13:32.538Z,65.6
2017-10-04T12:14:33.986Z,64.9
2017-10-04T12:15:35.456Z,65.2
2017-10-04T12:16:36.924Z,65.7
2017-10-04T12:17:38.381Z,65.6
2017-10-04T12:18:39.843Z,65.8
2017-10-04T12:19:41.344Z,65.2
2017-10-04T12:20:42.809Z,65.3
2017-10-04T12:21:44.302Z,64.6
2017-10-04T12:22:45.788Z,64.6
2017-10-04T12:23:47.246Z,64.9
2017-10-04T12:24:48.692Z,65.4
2017-10-04T12:25:50.171Z,65.1
2017-10-04T12:26:51.616Z,65.5
2017-10-04T12:27:53.101Z,66.4
2017-10-04T12:28:54.526Z,65.7
2017-10-04T12:29:55.972Z,66.3
2017-10-04T12:30:57.443Z,65.9
2017-10-04T12:31:58.927Z,66.1
2017-10-04T12:33:00.376Z,66.4
2017-10-04T12:34:01.822Z,66.3
2017-10-04T12:35:03.264Z,66.4
2017-10-04T12:36:04.742Z,66.3
2017-10-04T12:37:06.195Z,66.4
2017-10-04T12:38:07.646Z,66.3
2017-10-04T12:39:09.075Z,66.3
2017-10-04T12:40:10.520Z,66.3
2017-10-04T12:41:11.959Z,66.4
2017-10-04T12:42:13.422Z,66.7
2017-10-04T12:43:14.886Z,66.5
2017-10-04T12:44:16.331Z,66.7
2017-10-04T12:45:17.788Z,66.7
2017-10-04T12:46:19.240Z,66.7
2017-10-04T12:47:20.682Z,67.0
2017-10-04T12:48:22.128Z,66.7
2017-10-04T12:49:23.560Z,66.7
2017-10-04T12:50:25.001Z,66.7
2017-10-04T12:51:26.427Z,66.8
2017-10-04T12:52:27.862Z,66.6
2017-10-04T12:53:29.364Z,66.9
2017-10-04T12:54:30.808Z,66.8
2017-10-04T12:55:32.189Z,66.8
2017-10-04T12:56:33.594Z,66.8
2017-10-04T12:57:34.999Z,67.2
2017-10-04T12:58:36.402Z,67.7
2017-10-04T12:59:37.804Z,66.8
2017-10-04T13:00:39.213Z,66.6
2017-10-04T13:01:40.616Z,66.9
2017-10-04T13:02:42.060Z,67.2
2017-10-04T13:03:43.457Z,66.7
2017-10-04T13:04:44.864Z,67.0
2017-10-04T13:05:46.275Z,66.9
2017-10-04T13:06:47.681Z,66.4
2017-10-04T13:07:49.098Z,66.0
2017-10-04T13:08:50.516Z,65.8
2017-10-04T13:09:51.921Z,65.8
2017-10-04T13:10:53.331Z,66.0
2017-10-04T13:11:54.736Z,66.0
2017-10-04T13:12:56.147Z,66.6
2017-10-04T13:13:57.568Z,66.9
2017-10-04T13:14:58.986Z,66.6
2017-10-04T13:16:00.393Z,65.6
2017-10-04T13:17:01.800Z,65.0
2017-10-04T13:18:03.206Z,65.7
2017-10-04T13:19:04.615Z,65.6
2017-10-04T13:20:06.020Z,65.8
2017-10-04T13:21:07.424Z,65.7
2017-10-04T13:22:08.834Z,66.0
2017-10-04T13:23:10.244Z,66.4
2017-10-04T13:24:11.648Z,66.8
2017-10-04T13:25:13.066Z,66.3
2017-10-04T13:26:14.483Z,66.0
2017-10-04T13:27:15.896Z,66.6
2017-10-04T13:28:17.296Z,66.8
2017-10-04T13:29:18.719Z,67.2
2017-10-04T13:30:20.126Z,67.3
2017-10-04T13:31:21.542Z,67.2
2017-10-04T13:32:22.960Z,66.7
2017-10-04T13:33:24.382Z,67.1
2017-10-04T13:34:25.809Z,66.5
2017-10-04T13:35:27.297Z,66.6
2017-10-04T13:36:28.723Z,66.4
2017-10-04T13:37:30.167Z,66.7
2017-10-04T13:38:31.590Z,66.1